sensor_id;sensor_type;location;lat;lon;timestamp;P1;durP1;ratioP1;P2;durP2;ratioP2
15012;SDS011;7603;49.432;11.418;2023-03-24T00:00:51;1.60;;;1.50;;
15012;SDS011;7603;49.432;11.418;2023-03-24T00:03:27;1.88;;;1.73;;
15012;SDS011;7603;49.432;11.418;2023-03-24T00:05:54;2.35;;;1.30;;
15012;SDS011;7603;49.432;11.418;2023-03-24T00:08:22;4.50;;;2.60;;
15012;SDS011;7603;49.432;11.418;2023-03-24T00:10:48;3.40;;;1.40;;
15012;SDS011;7603;49.432;11.418;2023-03-24T00:13:15;1.13;;;1.13;;
15012;SDS011;7603;49.432;11.418;2023-03-24T00:15:40;2.80;;;2.35;;
15012;SDS011;7603;49.432;11.418;2023-03-24T00:18:06;1.80;;;1.70;;
15012;SDS011;7603;49.432;11.418;2023-03-24T00:20:34;1.45;;;1.42;;
15012;SDS011;7603;49.432;11.418;2023-03-24T00:23:00;2.47;;;1.70;;
15012;SDS011;7603;49.432;11.418;2023-03-24T00:25:27;4.40;;;3.00;;
15012;SDS011;7603;49.432;11.418;2023-03-24T00:27:59;8.82;;;2.95;;
15012;SDS011;7603;49.432;11.418;2023-03-24T00:30:27;6.43;;;3.65;;
15012;SDS011;7603;49.432;11.418;2023-03-24T00:32:54;8.68;;;3.25;;
15012;SDS011;7603;49.432;11.418;2023-03-24T00:35:22;8.07;;;2.28;;
15012;SDS011;7603;49.432;11.418;2023-03-24T00:37:48;3.20;;;2.72;;
15012;SDS011;7603;49.432;11.418;2023-03-24T00:40:16;2.38;;;2.25;;
15012;SDS011;7603;49.432;11.418;2023-03-24T00:42:44;2.55;;;1.88;;
15012;SDS011;7603;49.432;11.418;2023-03-24T00:45:12;2.05;;;1.42;;
15012;SDS011;7603;49.432;11.418;2023-03-24T00:47:39;1.50;;;1.40;;
15012;SDS011;7603;49.432;11.418;2023-03-24T00:50:06;1.58;;;1.48;;
15012;SDS011;7603;49.432;11.418;2023-03-24T00:52:34;1.80;;;1.70;;
15012;SDS011;7603;49.432;11.418;2023-03-24T00:55:00;2.67;;;2.47;;
15012;SDS011;7603;49.432;11.418;2023-03-24T00:57:27;2.00;;;1.90;;
15012;SDS011;7603;49.432;11.418;2023-03-24T00:59:58;1.67;;;1.58;;
15012;SDS011;7603;49.432;11.418;2023-03-24T01:02:31;2.20;;;1.83;;
15012;SDS011;7603;49.432;11.418;2023-03-24T01:04:58;3.97;;;1.77;;
15012;SDS011;7603;49.432;11.418;2023-03-24T01:07:26;3.28;;;2.97;;
15012;SDS011;7603;49.432;11.418;2023-03-24T01:09:54;1.80;;;1.70;;
15012;SDS011;7603;49.432;11.418;2023-03-24T01:12:24;2.03;;;1.85;;
15012;SDS011;7603;49.432;11.418;2023-03-24T01:14:55;2.15;;;2.00;;
15012;SDS011;7603;49.432;11.418;2023-03-24T01:17:22;2.42;;;2.17;;
15012;SDS011;7603;49.432;11.418;2023-03-24T01:19:50;2.40;;;2.28;;
15012;SDS011;7603;49.432;11.418;2023-03-24T01:22:16;2.33;;;2.22;;
15012;SDS011;7603;49.432;11.418;2023-03-24T01:24:42;2.20;;;2.00;;
15012;SDS011;7603;49.432;11.418;2023-03-24T01:27:08;1.90;;;1.70;;
15012;SDS011;7603;49.432;11.418;2023-03-24T01:29:34;2.28;;;2.05;;
15012;SDS011;7603;49.432;11.418;2023-03-24T01:32:00;2.90;;;2.20;;
15012;SDS011;7603;49.432;11.418;2023-03-24T01:34:25;3.63;;;2.38;;
15012;SDS011;7603;49.432;11.418;2023-03-24T01:36:51;1.75;;;1.60;;
15012;SDS011;7603;49.432;11.418;2023-03-24T01:39:16;1.67;;;1.58;;
15012;SDS011;7603;49.432;11.418;2023-03-24T01:41:42;2.63;;;1.52;;
15012;SDS011;7603;49.432;11.418;2023-03-24T01:44:28;1.90;;;1.70;;
15012;SDS011;7603;49.432;11.418;2023-03-24T01:46:57;1.92;;;1.83;;
15012;SDS011;7603;49.432;11.418;2023-03-24T01:49:24;1.60;;;1.50;;
15012;SDS011;7603;49.432;11.418;2023-03-24T01:51:56;2.10;;;1.90;;
15012;SDS011;7603;49.432;11.418;2023-03-24T01:54:29;2.33;;;1.50;;
15012;SDS011;7603;49.432;11.418;2023-03-24T01:57:02;2.15;;;1.70;;
15012;SDS011;7603;49.432;11.418;2023-03-24T01:59:32;2.92;;;1.55;;
15012;SDS011;7603;49.432;11.418;2023-03-24T02:02:03;1.55;;;1.45;;
15012;SDS011;7603;49.432;11.418;2023-03-24T02:04:30;2.15;;;1.90;;
15012;SDS011;7603;49.432;11.418;2023-03-24T02:06:58;1.63;;;1.40;;
15012;SDS011;7603;49.432;11.418;2023-03-24T02:09:32;1.88;;;1.42;;
15012;SDS011;7603;49.432;11.418;2023-03-24T02:11:57;1.85;;;1.52;;
15012;SDS011;7603;49.432;11.418;2023-03-24T02:14:24;2.45;;;2.25;;
15012;SDS011;7603;49.432;11.418;2023-03-24T02:22:51;1.70;;;1.60;;
15012;SDS011;7603;49.432;11.418;2023-03-24T02:31:28;2.15;;;1.95;;
15012;SDS011;7603;49.432;11.418;2023-03-24T02:40:21;1.85;;;1.75;;
15012;SDS011;7603;49.432;11.418;2023-03-24T02:47:02;1.75;;;1.65;;
15012;SDS011;7603;49.432;11.418;2023-03-24T02:51:48;7.43;;;2.05;;
15012;SDS011;7603;49.432;11.418;2023-03-24T02:54:36;2.20;;;2.03;;
15012;SDS011;7603;49.432;11.418;2023-03-24T02:59:35;1.85;;;1.75;;
15012;SDS011;7603;49.432;11.418;2023-03-24T03:02:14;2.15;;;2.03;;
15012;SDS011;7603;49.432;11.418;2023-03-24T03:04:48;1.92;;;1.80;;
15012;SDS011;7603;49.432;11.418;2023-03-24T03:07:26;1.67;;;1.58;;
15012;SDS011;7603;49.432;11.418;2023-03-24T03:12:39;2.33;;;1.92;;
15012;SDS011;7603;49.432;11.418;2023-03-24T03:15:25;4.60;;;2.05;;
15012;SDS011;7603;49.432;11.418;2023-03-24T03:18:00;2.22;;;2.03;;
15012;SDS011;7603;49.432;11.418;2023-03-24T03:20:41;2.10;;;2.00;;
15012;SDS011;7603;49.432;11.418;2023-03-24T03:23:14;2.58;;;2.33;;
15012;SDS011;7603;49.432;11.418;2023-03-24T03:25:45;3.00;;;1.95;;
15012;SDS011;7603;49.432;11.418;2023-03-24T03:28:16;2.33;;;2.20;;
15012;SDS011;7603;49.432;11.418;2023-03-24T03:30:46;2.08;;;1.98;;
15012;SDS011;7603;49.432;11.418;2023-03-24T03:33:29;3.00;;;1.85;;
15012;SDS011;7603;49.432;11.418;2023-03-24T03:36:21;1.75;;;1.65;;
15012;SDS011;7603;49.432;11.418;2023-03-24T03:41:18;3.00;;;2.30;;
15012;SDS011;7603;49.432;11.418;2023-03-24T03:43:44;2.25;;;1.90;;
15012;SDS011;7603;49.432;11.418;2023-03-24T03:46:12;4.07;;;3.03;;
15012;SDS011;7603;49.432;11.418;2023-03-24T03:48:40;3.53;;;1.67;;
15012;SDS011;7603;49.432;11.418;2023-03-24T03:51:07;2.10;;;1.90;;
15012;SDS011;7603;49.432;11.418;2023-03-24T03:53:44;2.10;;;2.00;;
15012;SDS011;7603;49.432;11.418;2023-03-24T03:56:14;2.17;;;2.08;;
15012;SDS011;7603;49.432;11.418;2023-03-24T03:58:43;2.65;;;1.90;;
15012;SDS011;7603;49.432;11.418;2023-03-24T04:01:11;2.63;;;2.42;;
15012;SDS011;7603;49.432;11.418;2023-03-24T04:18:14;3.03;;;2.40;;
15012;SDS011;7603;49.432;11.418;2023-03-24T04:24:14;2.25;;;2.00;;
15012;SDS011;7603;49.432;11.418;2023-03-24T04:26:55;2.22;;;2.10;;
15012;SDS011;7603;49.432;11.418;2023-03-24T04:32:06;2.13;;;2.03;;
15012;SDS011;7603;49.432;11.418;2023-03-24T04:34:39;1.77;;;1.67;;
15012;SDS011;7603;49.432;11.418;2023-03-24T04:37:11;1.92;;;1.75;;
15012;SDS011;7603;49.432;11.418;2023-03-24T04:39:44;1.73;;;1.63;;
15012;SDS011;7603;49.432;11.418;2023-03-24T04:42:14;1.85;;;1.75;;
15012;SDS011;7603;49.432;11.418;2023-03-24T04:44:56;2.08;;;1.88;;
15012;SDS011;7603;49.432;11.418;2023-03-24T04:47:24;1.80;;;1.70;;
15012;SDS011;7603;49.432;11.418;2023-03-24T04:50:03;1.70;;;1.60;;
15012;SDS011;7603;49.432;11.418;2023-03-24T04:52:31;1.88;;;1.77;;
15012;SDS011;7603;49.432;11.418;2023-03-24T04:54:57;2.08;;;1.88;;
15012;SDS011;7603;49.432;11.418;2023-03-24T04:57:23;1.80;;;1.58;;
15012;SDS011;7603;49.432;11.418;2023-03-24T04:59:49;1.98;;;1.80;;
15012;SDS011;7603;49.432;11.418;2023-03-24T05:02:15;1.67;;;1.58;;
15012;SDS011;7603;49.432;11.418;2023-03-24T05:04:40;5.57;;;2.80;;
15012;SDS011;7603;49.432;11.418;2023-03-24T05:07:06;2.58;;;2.10;;
15012;SDS011;7603;49.432;11.418;2023-03-24T05:09:31;3.22;;;2.30;;
15012;SDS011;7603;49.432;11.418;2023-03-24T05:11:57;3.17;;;2.05;;
15012;SDS011;7603;49.432;11.418;2023-03-24T05:14:22;5.50;;;3.13;;
15012;SDS011;7603;49.432;11.418;2023-03-24T05:16:48;1.75;;;1.65;;
15012;SDS011;7603;49.432;11.418;2023-03-24T05:19:14;1.92;;;1.80;;
15012;SDS011;7603;49.432;11.418;2023-03-24T05:21:40;1.80;;;1.70;;
15012;SDS011;7603;49.432;11.418;2023-03-24T05:24:06;1.63;;;1.48;;
15012;SDS011;7603;49.432;11.418;2023-03-24T05:26:32;1.70;;;1.48;;
15012;SDS011;7603;49.432;11.418;2023-03-24T05:28:58;1.80;;;1.70;;
15012;SDS011;7603;49.432;11.418;2023-03-24T05:31:23;1.83;;;1.73;;
15012;SDS011;7603;49.432;11.418;2023-03-24T05:33:49;1.73;;;1.63;;
15012;SDS011;7603;49.432;11.418;2023-03-24T05:36:15;1.60;;;1.48;;
15012;SDS011;7603;49.432;11.418;2023-03-24T05:38:40;1.60;;;1.50;;
15012;SDS011;7603;49.432;11.418;2023-03-24T05:41:06;1.88;;;1.77;;
15012;SDS011;7603;49.432;11.418;2023-03-24T05:43:32;1.80;;;1.67;;
15012;SDS011;7603;49.432;11.418;2023-03-24T05:45:57;2.00;;;1.80;;
15012;SDS011;7603;49.432;11.418;2023-03-24T05:48:26;2.20;;;2.00;;
15012;SDS011;7603;49.432;11.418;2023-03-24T05:50:52;1.40;;;1.30;;
15012;SDS011;7603;49.432;11.418;2023-03-24T05:53:18;1.48;;;1.38;;
15012;SDS011;7603;49.432;11.418;2023-03-24T05:55:44;1.85;;;1.75;;
15012;SDS011;7603;49.432;11.418;2023-03-24T05:58:10;1.60;;;1.48;;
15012;SDS011;7603;49.432;11.418;2023-03-24T06:00:36;1.80;;;1.70;;
15012;SDS011;7603;49.432;11.418;2023-03-24T06:03:02;2.40;;;1.98;;
15012;SDS011;7603;49.432;11.418;2023-03-24T06:05:28;1.70;;;1.60;;
15012;SDS011;7603;49.432;11.418;2023-03-24T06:07:54;3.45;;;2.88;;
15012;SDS011;7603;49.432;11.418;2023-03-24T06:10:22;3.28;;;2.30;;
15012;SDS011;7603;49.432;11.418;2023-03-24T06:12:50;1.70;;;1.60;;
15012;SDS011;7603;49.432;11.418;2023-03-24T06:15:16;1.45;;;1.35;;
15012;SDS011;7603;49.432;11.418;2023-03-24T06:17:43;1.50;;;1.40;;
15012;SDS011;7603;49.432;11.418;2023-03-24T06:20:10;2.17;;;1.65;;
15012;SDS011;7603;49.432;11.418;2023-03-24T06:22:39;1.65;;;1.55;;
15012;SDS011;7603;49.432;11.418;2023-03-24T06:25:06;2.35;;;1.83;;
15012;SDS011;7603;49.432;11.418;2023-03-24T06:27:33;1.17;;;1.17;;
15012;SDS011;7603;49.432;11.418;2023-03-24T06:30:00;1.60;;;1.58;;
15012;SDS011;7603;49.432;11.418;2023-03-24T06:32:25;1.48;;;1.45;;
15012;SDS011;7603;49.432;11.418;2023-03-24T06:34:51;1.45;;;1.17;;
15012;SDS011;7603;49.432;11.418;2023-03-24T06:37:17;2.20;;;2.08;;
15012;SDS011;7603;49.432;11.418;2023-03-24T06:39:45;1.40;;;1.30;;
15012;SDS011;7603;49.432;11.418;2023-03-24T06:42:11;1.85;;;1.75;;
15012;SDS011;7603;49.432;11.418;2023-03-24T06:44:36;2.15;;;2.05;;
15012;SDS011;7603;49.432;11.418;2023-03-24T06:47:02;2.88;;;1.65;;
15012;SDS011;7603;49.432;11.418;2023-03-24T06:49:28;2.83;;;2.63;;
15012;SDS011;7603;49.432;11.418;2023-03-24T06:51:54;2.47;;;1.67;;
15012;SDS011;7603;49.432;11.418;2023-03-24T06:54:20;1.90;;;1.80;;
15012;SDS011;7603;49.432;11.418;2023-03-24T06:56:46;1.42;;;1.33;;
15012;SDS011;7603;49.432;11.418;2023-03-24T06:59:12;1.42;;;1.40;;
15012;SDS011;7603;49.432;11.418;2023-03-24T07:01:37;1.80;;;1.70;;
15012;SDS011;7603;49.432;11.418;2023-03-24T07:04:03;1.65;;;1.55;;
15012;SDS011;7603;49.432;11.418;2023-03-24T07:06:29;2.03;;;1.88;;
15012;SDS011;7603;49.432;11.418;2023-03-24T07:08:55;1.63;;;1.52;;
15012;SDS011;7603;49.432;11.418;2023-03-24T07:11:21;1.48;;;1.27;;
15012;SDS011;7603;49.432;11.418;2023-03-24T07:13:47;1.98;;;1.88;;
15012;SDS011;7603;49.432;11.418;2023-03-24T07:16:13;1.42;;;1.35;;
15012;SDS011;7603;49.432;11.418;2023-03-24T07:18:39;1.45;;;1.35;;
15012;SDS011;7603;49.432;11.418;2023-03-24T07:21:05;1.20;;;1.20;;
15012;SDS011;7603;49.432;11.418;2023-03-24T07:23:31;1.80;;;1.70;;
15012;SDS011;7603;49.432;11.418;2023-03-24T07:25:57;1.90;;;1.67;;
15012;SDS011;7603;49.432;11.418;2023-03-24T07:28:23;1.45;;;1.45;;
15012;SDS011;7603;49.432;11.418;2023-03-24T07:30:49;1.33;;;1.23;;
15012;SDS011;7603;49.432;11.418;2023-03-24T07:33:14;1.98;;;1.85;;
15012;SDS011;7603;49.432;11.418;2023-03-24T07:35:40;4.22;;;2.53;;
15012;SDS011;7603;49.432;11.418;2023-03-24T07:38:06;2.92;;;2.30;;
15012;SDS011;7603;49.432;11.418;2023-03-24T07:40:33;2.60;;;2.13;;
15012;SDS011;7603;49.432;11.418;2023-03-24T07:43:01;4.38;;;4.07;;
15012;SDS011;7603;49.432;11.418;2023-03-24T07:45:29;1.80;;;1.70;;
15012;SDS011;7603;49.432;11.418;2023-03-24T07:47:55;1.98;;;1.80;;
15012;SDS011;7603;49.432;11.418;2023-03-24T07:50:25;1.73;;;1.58;;
15012;SDS011;7603;49.432;11.418;2023-03-24T07:52:52;1.83;;;1.73;;
15012;SDS011;7603;49.432;11.418;2023-03-24T07:55:18;2.55;;;2.42;;
15012;SDS011;7603;49.432;11.418;2023-03-24T07:57:47;1.98;;;1.73;;
15012;SDS011;7603;49.432;11.418;2023-03-24T08:00:14;3.35;;;1.50;;
15012;SDS011;7603;49.432;11.418;2023-03-24T08:02:44;1.55;;;1.33;;
15012;SDS011;7603;49.432;11.418;2023-03-24T08:05:12;1.63;;;1.52;;
15012;SDS011;7603;49.432;11.418;2023-03-24T08:07:48;1.58;;;1.48;;
15012;SDS011;7603;49.432;11.418;2023-03-24T08:10:17;2.30;;;1.45;;
15012;SDS011;7603;49.432;11.418;2023-03-24T08:12:45;2.00;;;1.90;;
15012;SDS011;7603;49.432;11.418;2023-03-24T08:15:11;2.00;;;1.88;;
15012;SDS011;7603;49.432;11.418;2023-03-24T08:17:37;1.50;;;1.40;;
15012;SDS011;7603;49.432;11.418;2023-03-24T08:20:03;1.52;;;1.42;;
15012;SDS011;7603;49.432;11.418;2023-03-24T08:22:32;1.80;;;1.70;;
15012;SDS011;7603;49.432;11.418;2023-03-24T08:24:58;2.50;;;1.60;;
15012;SDS011;7603;49.432;11.418;2023-03-24T08:27:23;1.25;;;1.15;;
15012;SDS011;7603;49.432;11.418;2023-03-24T08:29:49;1.25;;;1.15;;
15012;SDS011;7603;49.432;11.418;2023-03-24T08:32:15;1.00;;;1.00;;
15012;SDS011;7603;49.432;11.418;2023-03-24T08:34:40;2.28;;;1.25;;
15012;SDS011;7603;49.432;11.418;2023-03-24T08:37:06;1.00;;;1.00;;
15012;SDS011;7603;49.432;11.418;2023-03-24T08:39:32;1.10;;;1.00;;
15012;SDS011;7603;49.432;11.418;2023-03-24T08:41:59;1.13;;;1.13;;
15012;SDS011;7603;49.432;11.418;2023-03-24T08:44:26;1.05;;;1.00;;
15012;SDS011;7603;49.432;11.418;2023-03-24T08:46:51;1.67;;;1.20;;
15012;SDS011;7603;49.432;11.418;2023-03-24T08:49:17;1.20;;;1.10;;
15012;SDS011;7603;49.432;11.418;2023-03-24T08:51:43;0.93;;;0.93;;
15012;SDS011;7603;49.432;11.418;2023-03-24T08:54:08;1.98;;;1.73;;
15012;SDS011;7603;49.432;11.418;2023-03-24T08:56:36;1.10;;;1.10;;
15012;SDS011;7603;49.432;11.418;2023-03-24T08:59:02;1.50;;;1.40;;
15012;SDS011;7603;49.432;11.418;2023-03-24T09:01:29;1.00;;;1.00;;
15012;SDS011;7603;49.432;11.418;2023-03-24T09:03:55;1.08;;;1.02;;
15012;SDS011;7603;49.432;11.418;2023-03-24T09:06:21;1.45;;;1.35;;
15012;SDS011;7603;49.432;11.418;2023-03-24T09:08:47;1.20;;;1.10;;
15012;SDS011;7603;49.432;11.418;2023-03-24T09:11:16;1.10;;;1.00;;
15012;SDS011;7603;49.432;11.418;2023-03-24T09:13:43;1.98;;;1.88;;
15012;SDS011;7603;49.432;11.418;2023-03-24T09:16:08;1.23;;;1.13;;
15012;SDS011;7603;49.432;11.418;2023-03-24T09:18:35;1.13;;;1.13;;
15012;SDS011;7603;49.432;11.418;2023-03-24T09:21:01;0.98;;;0.98;;
15012;SDS011;7603;49.432;11.418;2023-03-24T09:23:27;1.27;;;1.17;;
15012;SDS011;7603;49.432;11.418;2023-03-24T09:25:53;2.00;;;1.90;;
15012;SDS011;7603;49.432;11.418;2023-03-24T09:28:19;1.08;;;1.08;;
15012;SDS011;7603;49.432;11.418;2023-03-24T09:30:46;0.80;;;0.80;;
15012;SDS011;7603;49.432;11.418;2023-03-24T09:33:11;1.40;;;1.30;;
15012;SDS011;7603;49.432;11.418;2023-03-24T09:35:37;2.13;;;1.10;;
15012;SDS011;7603;49.432;11.418;2023-03-24T09:38:03;2.15;;;1.50;;
15012;SDS011;7603;49.432;11.418;2023-03-24T09:40:30;1.42;;;1.33;;
15012;SDS011;7603;49.432;11.418;2023-03-24T09:43:02;1.15;;;1.15;;
15012;SDS011;7603;49.432;11.418;2023-03-24T09:45:49;1.27;;;1.17;;
15012;SDS011;7603;49.432;11.418;2023-03-24T09:48:37;1.10;;;1.10;;
15012;SDS011;7603;49.432;11.418;2023-03-24T09:51:14;0.90;;;0.90;;
15012;SDS011;7603;49.432;11.418;2023-03-24T09:54:08;1.45;;;1.35;;
15012;SDS011;7603;49.432;11.418;2023-03-24T09:56:47;1.98;;;1.88;;
15012;SDS011;7603;49.432;11.418;2023-03-24T09:59:17;2.17;;;1.65;;
15012;SDS011;7603;49.432;11.418;2023-03-24T10:01:45;1.25;;;1.25;;
15012;SDS011;7603;49.432;11.418;2023-03-24T10:04:16;1.63;;;1.52;;
15012;SDS011;7603;49.432;11.418;2023-03-24T10:06:45;2.15;;;1.45;;
15012;SDS011;7603;49.432;11.418;2023-03-24T10:22:59;1.15;;;1.05;;
15012;SDS011;7603;49.432;11.418;2023-03-24T10:28:20;1.40;;;1.30;;
15012;SDS011;7603;49.432;11.418;2023-03-24T10:30:51;1.17;;;1.10;;
15012;SDS011;7603;49.432;11.418;2023-03-24T10:33:19;1.20;;;1.20;;
15012;SDS011;7603;49.432;11.418;2023-03-24T10:36:00;1.40;;;1.30;;
15012;SDS011;7603;49.432;11.418;2023-03-24T10:38:42;1.20;;;1.20;;
15012;SDS011;7603;49.432;11.418;2023-03-24T10:41:18;2.47;;;1.15;;
15012;SDS011;7603;49.432;11.418;2023-03-24T10:43:49;2.67;;;1.45;;
15012;SDS011;7603;49.432;11.418;2023-03-24T10:46:17;1.10;;;1.10;;
15012;SDS011;7603;49.432;11.418;2023-03-24T10:48:50;1.60;;;1.50;;
15012;SDS011;7603;49.432;11.418;2023-03-24T10:51:25;0.90;;;0.90;;
15012;SDS011;7603;49.432;11.418;2023-03-24T10:54:08;1.05;;;1.00;;
15012;SDS011;7603;49.432;11.418;2023-03-24T10:59:05;1.00;;;1.00;;
15012;SDS011;7603;49.432;11.418;2023-03-24T11:01:42;1.00;;;1.00;;
15012;SDS011;7603;49.432;11.418;2023-03-24T11:04:08;1.00;;;1.00;;
15012;SDS011;7603;49.432;11.418;2023-03-24T11:06:51;0.85;;;0.85;;
15012;SDS011;7603;49.432;11.418;2023-03-24T11:09:25;1.10;;;1.00;;
15012;SDS011;7603;49.432;11.418;2023-03-24T11:11:51;0.75;;;0.75;;
15012;SDS011;7603;49.432;11.418;2023-03-24T11:14:24;2.30;;;1.05;;
15012;SDS011;7603;49.432;11.418;2023-03-24T11:16:51;0.75;;;0.75;;
15012;SDS011;7603;49.432;11.418;2023-03-24T11:19:35;0.77;;;0.77;;
15012;SDS011;7603;49.432;11.418;2023-03-24T11:22:01;0.80;;;0.80;;
15012;SDS011;7603;49.432;11.418;2023-03-24T11:24:30;0.80;;;0.80;;
15012;SDS011;7603;49.432;11.418;2023-03-24T11:27:01;0.88;;;0.88;;
15012;SDS011;7603;49.432;11.418;2023-03-24T11:29:31;1.00;;;1.00;;
15012;SDS011;7603;49.432;11.418;2023-03-24T11:31:59;1.60;;;1.50;;
15012;SDS011;7603;49.432;11.418;2023-03-24T11:34:28;1.13;;;1.13;;
15012;SDS011;7603;49.432;11.418;2023-03-24T11:37:02;0.88;;;0.88;;
15012;SDS011;7603;49.432;11.418;2023-03-24T11:39:37;1.10;;;1.10;;
15012;SDS011;7603;49.432;11.418;2023-03-24T11:44:50;0.90;;;0.90;;
15012;SDS011;7603;49.432;11.418;2023-03-24T11:58:25;0.98;;;0.90;;
15012;SDS011;7603;49.432;11.418;2023-03-24T12:01:34;1.08;;;1.08;;
15012;SDS011;7603;49.432;11.418;2023-03-24T12:06:55;0.93;;;0.93;;
15012;SDS011;7603;49.432;11.418;2023-03-24T12:10:54;0.98;;;0.98;;
15012;SDS011;7603;49.432;11.418;2023-03-24T12:13:11;1.58;;;1.13;;
15012;SDS011;7603;49.432;11.418;2023-03-24T12:18:54;1.33;;;1.23;;
15012;SDS011;7603;49.432;11.418;2023-03-24T12:21:23;1.20;;;1.20;;
15012;SDS011;7603;49.432;11.418;2023-03-24T12:24:32;0.90;;;0.90;;
15012;SDS011;7603;49.432;11.418;2023-03-24T12:27:01;1.52;;;1.42;;
15012;SDS011;7603;49.432;11.418;2023-03-24T12:29:33;1.42;;;1.33;;
15012;SDS011;7603;49.432;11.418;2023-03-24T12:43:05;2.25;;;1.17;;
15012;SDS011;7603;49.432;11.418;2023-03-24T12:45:57;1.50;;;1.42;;
15012;SDS011;7603;49.432;11.418;2023-03-24T12:56:37;1.10;;;1.00;;
15012;SDS011;7603;49.432;11.418;2023-03-24T12:59:18;1.30;;;1.30;;
15012;SDS011;7603;49.432;11.418;2023-03-24T13:01:45;1.00;;;1.00;;
15012;SDS011;7603;49.432;11.418;2023-03-24T13:12:25;1.58;;;1.33;;
15012;SDS011;7603;49.432;11.418;2023-03-24T13:15:17;1.05;;;1.05;;
15012;SDS011;7603;49.432;11.418;2023-03-24T13:20:39;0.82;;;0.82;;
15012;SDS011;7603;49.432;11.418;2023-03-24T13:25:57;1.60;;;0.80;;
15012;SDS011;7603;49.432;11.418;2023-03-24T13:28:28;1.00;;;0.97;;
15012;SDS011;7603;49.432;11.418;2023-03-24T13:31:03;0.80;;;0.80;;
15012;SDS011;7603;49.432;11.418;2023-03-24T13:33:34;0.70;;;0.70;;
15012;SDS011;7603;49.432;11.418;2023-03-24T13:38:37;1.10;;;1.00;;
15012;SDS011;7603;49.432;11.418;2023-03-24T13:41:11;0.70;;;0.70;;
15012;SDS011;7603;49.432;11.418;2023-03-24T13:43:46;0.77;;;0.75;;
15012;SDS011;7603;49.432;11.418;2023-03-24T13:46:14;1.13;;;1.13;;
15012;SDS011;7603;49.432;11.418;2023-03-24T13:48:41;1.73;;;1.48;;
15012;SDS011;7603;49.432;11.418;2023-03-24T13:51:16;0.95;;;0.80;;
15012;SDS011;7603;49.432;11.418;2023-03-24T14:12:54;0.70;;;0.70;;
15012;SDS011;7603;49.432;11.418;2023-03-24T14:23:42;1.02;;;0.80;;
15012;SDS011;7603;49.432;11.418;2023-03-24T14:26:27;0.70;;;0.70;;
15012;SDS011;7603;49.432;11.418;2023-03-24T14:28:55;0.73;;;0.73;;
15012;SDS011;7603;49.432;11.418;2023-03-24T14:31:28;0.70;;;0.70;;
15012;SDS011;7603;49.432;11.418;2023-03-24T14:36:31;0.90;;;0.90;;
15012;SDS011;7603;49.432;11.418;2023-03-24T14:41:51;0.77;;;0.77;;
15012;SDS011;7603;49.432;11.418;2023-03-24T14:47:13;0.93;;;0.93;;
15012;SDS011;7603;49.432;11.418;2023-03-24T14:49:40;0.88;;;0.88;;
15012;SDS011;7603;49.432;11.418;2023-03-24T14:57:21;1.35;;;1.25;;
15012;SDS011;7603;49.432;11.418;2023-03-24T15:02:45;0.75;;;0.75;;
15012;SDS011;7603;49.432;11.418;2023-03-24T15:10:45;0.50;;;0.50;;
15012;SDS011;7603;49.432;11.418;2023-03-24T15:15:58;2.00;;;0.70;;
15012;SDS011;7603;49.432;11.418;2023-03-24T15:18:27;0.77;;;0.77;;
15012;SDS011;7603;49.432;11.418;2023-03-24T15:20:52;1.00;;;1.00;;
15012;SDS011;7603;49.432;11.418;2023-03-24T15:23:20;0.70;;;0.70;;
15012;SDS011;7603;49.432;11.418;2023-03-24T15:25:50;0.60;;;0.60;;
15012;SDS011;7603;49.432;11.418;2023-03-24T15:28:17;0.68;;;0.68;;
15012;SDS011;7603;49.432;11.418;2023-03-24T15:30:51;0.70;;;0.70;;
15012;SDS011;7603;49.432;11.418;2023-03-24T15:33:20;1.23;;;0.70;;
15012;SDS011;7603;49.432;11.418;2023-03-24T15:35:46;0.73;;;0.73;;
15012;SDS011;7603;49.432;11.418;2023-03-24T15:38:18;0.73;;;0.73;;
15012;SDS011;7603;49.432;11.418;2023-03-24T15:41:19;0.60;;;0.60;;
15012;SDS011;7603;49.432;11.418;2023-03-24T15:43:42;0.73;;;0.73;;
15012;SDS011;7603;49.432;11.418;2023-03-24T15:46:21;0.70;;;0.70;;
15012;SDS011;7603;49.432;11.418;2023-03-24T15:48:50;0.95;;;0.95;;
15012;SDS011;7603;49.432;11.418;2023-03-24T15:51:17;0.73;;;0.73;;
15012;SDS011;7603;49.432;11.418;2023-03-24T15:53:56;1.15;;;1.10;;
15012;SDS011;7603;49.432;11.418;2023-03-24T15:56:23;1.50;;;1.33;;
15012;SDS011;7603;49.432;11.418;2023-03-24T15:58:56;0.82;;;0.82;;
15012;SDS011;7603;49.432;11.418;2023-03-24T16:01:37;0.70;;;0.70;;
15012;SDS011;7603;49.432;11.418;2023-03-24T16:04:06;0.65;;;0.65;;
15012;SDS011;7603;49.432;11.418;2023-03-24T16:06:38;0.93;;;0.93;;
15012;SDS011;7603;49.432;11.418;2023-03-24T16:09:09;0.60;;;0.60;;
15012;SDS011;7603;49.432;11.418;2023-03-24T16:11:38;0.50;;;0.50;;
15012;SDS011;7603;49.432;11.418;2023-03-24T16:14:19;0.60;;;0.60;;
15012;SDS011;7603;49.432;11.418;2023-03-24T16:16:56;0.55;;;0.55;;
15012;SDS011;7603;49.432;11.418;2023-03-24T16:19:24;0.57;;;0.57;;
15012;SDS011;7603;49.432;11.418;2023-03-24T16:21:50;0.68;;;0.68;;
15012;SDS011;7603;49.432;11.418;2023-03-24T16:24:15;0.60;;;0.60;;
15012;SDS011;7603;49.432;11.418;2023-03-24T16:26:41;0.63;;;0.63;;
15012;SDS011;7603;49.432;11.418;2023-03-24T16:29:14;0.50;;;0.50;;
15012;SDS011;7603;49.432;11.418;2023-03-24T16:31:42;0.60;;;0.60;;
15012;SDS011;7603;49.432;11.418;2023-03-24T16:34:09;0.73;;;0.73;;
15012;SDS011;7603;49.432;11.418;2023-03-24T16:36:34;0.60;;;0.60;;
15012;SDS011;7603;49.432;11.418;2023-03-24T16:39:00;0.60;;;0.60;;
15012;SDS011;7603;49.432;11.418;2023-03-24T16:41:27;0.95;;;0.70;;
15012;SDS011;7603;49.432;11.418;2023-03-24T16:43:53;1.33;;;1.23;;
15012;SDS011;7603;49.432;11.418;2023-03-24T16:46:20;0.70;;;0.70;;
15012;SDS011;7603;49.432;11.418;2023-03-24T16:48:49;1.95;;;0.90;;
15012;SDS011;7603;49.432;11.418;2023-03-24T16:51:15;0.55;;;0.55;;
15012;SDS011;7603;49.432;11.418;2023-03-24T16:53:41;0.80;;;0.80;;
15012;SDS011;7603;49.432;11.418;2023-03-24T16:56:08;1.17;;;0.75;;
15012;SDS011;7603;49.432;11.418;2023-03-24T16:58:37;0.70;;;0.70;;
15012;SDS011;7603;49.432;11.418;2023-03-24T17:01:11;0.75;;;0.75;;
15012;SDS011;7603;49.432;11.418;2023-03-24T17:03:54;0.70;;;0.70;;
15012;SDS011;7603;49.432;11.418;2023-03-24T17:06:21;0.60;;;0.60;;
15012;SDS011;7603;49.432;11.418;2023-03-24T17:08:48;2.15;;;1.15;;
15012;SDS011;7603;49.432;11.418;2023-03-24T17:11:19;0.80;;;0.70;;
15012;SDS011;7603;49.432;11.418;2023-03-24T17:13:54;0.80;;;0.65;;
15012;SDS011;7603;49.432;11.418;2023-03-24T17:16:28;0.70;;;0.70;;
15012;SDS011;7603;49.432;11.418;2023-03-24T17:18:55;0.50;;;0.50;;
15012;SDS011;7603;49.432;11.418;2023-03-24T17:21:20;1.85;;;0.80;;
15012;SDS011;7603;49.432;11.418;2023-03-24T17:23:47;1.10;;;0.88;;
15012;SDS011;7603;49.432;11.418;2023-03-24T17:26:14;0.75;;;0.70;;
15012;SDS011;7603;49.432;11.418;2023-03-24T17:28:40;0.70;;;0.70;;
15012;SDS011;7603;49.432;11.418;2023-03-24T17:31:06;0.93;;;0.52;;
15012;SDS011;7603;49.432;11.418;2023-03-24T17:33:32;1.02;;;1.02;;
15012;SDS011;7603;49.432;11.418;2023-03-24T17:35:57;2.13;;;0.90;;
15012;SDS011;7603;49.432;11.418;2023-03-24T17:38:23;0.80;;;0.80;;
15012;SDS011;7603;49.432;11.418;2023-03-24T17:40:57;1.30;;;1.20;;
15012;SDS011;7603;49.432;11.418;2023-03-24T17:43:24;0.90;;;0.90;;
15012;SDS011;7603;49.432;11.418;2023-03-24T17:45:51;0.80;;;0.80;;
15012;SDS011;7603;49.432;11.418;2023-03-24T17:48:20;1.10;;;0.90;;
15012;SDS011;7603;49.432;11.418;2023-03-24T17:50:45;1.10;;;0.80;;
15012;SDS011;7603;49.432;11.418;2023-03-24T17:53:12;1.38;;;0.95;;
15012;SDS011;7603;49.432;11.418;2023-03-24T17:55:39;1.23;;;1.15;;
15012;SDS011;7603;49.432;11.418;2023-03-24T17:58:05;1.92;;;0.80;;
15012;SDS011;7603;49.432;11.418;2023-03-24T18:00:31;4.53;;;1.35;;
15012;SDS011;7603;49.432;11.418;2023-03-24T18:02:57;1.80;;;1.70;;